Terminal Aerodrome Forecast
Issued by NWS

Home | Current Version | Previous Version | Text Only | Print | Product List | Glossary On
Versions: 1 2 3 4 5 6 7 8 9 10 11 12 13 14 15 16 17 18 19 20
000
FTUS44 KLZK 011600 AAC
TAFLLQ
TAF AMD
KLLQ 011604Z 0116/0212 08006KT P6SM SCT006 SCT011 OVC035
     FM020000 07003KT P6SM OVC040
     FM020600 03003KT P6SM BKN250
      TEMPO 0209/0212 5SM BR=

USA.gov is the U.S. government's official web portal to all federal, state and local government web resources and services.